Time;durP1;ratioP1;P1;durP2;ratioP2;P2;SDS_P1;SDS_P2;PMS_P1;PMS_P2;Temp;Humidity;BMP_temperature;BMP_pressure;BME280_temperature;BME280_humidity;BME280_pressure;Samples;Min_cycle;Max_cycle;Signal;HPM_P1;HPM_P2
2022/10/31 00:01:16;;;;;;;27.88;13.93;;;;;;;;;;6241786;22;20013;-87
2022/10/31 00:03:42;;;;;;;29.48;12.20;;;;;;;;;;6243566;22;20050;-87
2022/10/31 00:06:08;;;;;;;50.38;16.38;;;;;;;;;;6268230;22;20007;-88
2022/10/31 00:08:34;;;;;;;44.47;14.75;;;;;;;;;;6243717;22;20011;-87
2022/10/31 00:11:00;;;;;;;38.53;14.85;;;;;;;;;;6241320;22;20015;-87
2022/10/31 00:13:26;;;;;;;33.05;14.95;;;;;;;;;;6219162;22;20016;-87
2022/10/31 00:15:52;;;;;;;40.90;14.48;;;;;;;;;;6243250;22;20007;-87
2022/10/31 00:18:18;;;;;;;39.05;13.45;;;;;;;;;;6244337;22;20008;-87
2022/10/31 00:20:44;;;;;;;43.38;16.77;;;;;;;;;;6243923;22;20004;-87
2022/10/31 00:23:11;;;;;;;40.47;15.32;;;;;;;;;;6246662;22;20008;-87
2022/10/31 00:25:38;;;;;;;38.13;15.55;;;;;;;;;;6246686;22;20505;-87
2022/10/31 00:28:05;;;;;;;41.75;16.33;;;;;;;;;;6273183;22;20011;-87
2022/10/31 00:30:37;;;;;;;34.60;14.98;;;;;;;;;;6243592;22;20637;-87
2022/10/31 00:33:06;;;;;;;42.75;16.33;;;;;;;;;;6272800;22;20008;-87
2022/10/31 00:35:32;;;;;;;38.90;16.23;;;;;;;;;;6244122;22;20014;-87
2022/10/31 00:37:58;;;;;;;36.15;14.95;;;;;;;;;;6219244;22;20039;-87
2022/10/31 00:40:24;;;;;;;37.88;14.77;;;;;;;;;;6246738;22;20038;-87
2022/10/31 00:42:50;;;;;;;40.83;15.75;;;;;;;;;;6233671;22;20024;-87
2022/10/31 00:45:16;;;;;;;45.40;16.23;;;;;;;;;;6183059;23;20584;-87
2022/10/31 00:47:42;;;;;;;38.10;15.75;;;;;;;;;;6210100;23;20001;-87
2022/10/31 00:50:09;;;;;;;40.65;15.98;;;;;;;;;;6183958;23;20020;-88
2022/10/31 00:52:35;;;;;;;37.72;15.43;;;;;;;;;;6207959;23;20009;-87
2022/10/31 00:55:01;;;;;;;36.30;15.38;;;;;;;;;;6208480;23;20005;-87
2022/10/31 00:57:27;;;;;;;39.78;16.70;;;;;;;;;;6207558;23;20013;-87
2022/10/31 00:59:53;;;;;;;40.67;17.33;;;;;;;;;;6208186;23;20115;-87
2022/10/31 01:02:19;;;;;;;44.67;16.90;;;;;;;;;;6181891;23;20568;-87
2022/10/31 01:04:45;;;;;;;34.30;15.13;;;;;;;;;;6206767;23;20048;-87
2022/10/31 01:07:13;;;;;;;39.17;15.63;;;;;;;;;;6181723;23;20103;-87
2022/10/31 01:09:38;;;;;;;42.00;15.75;;;;;;;;;;6208866;23;20031;-87
2022/10/31 01:12:08;;;;;;;54.05;17.52;;;;;;;;;;6183335;23;20850;-88
2022/10/31 01:14:34;;;;;;;46.08;15.27;;;;;;;;;;6207713;23;20009;-86
2022/10/31 01:17:00;;;;;;;34.58;15.57;;;;;;;;;;6204102;23;20535;-86
2022/10/31 01:19:25;;;;;;;38.70;14.98;;;;;;;;;;6206577;23;20012;-87
2022/10/31 01:21:54;;;;;;;36.25;15.65;;;;;;;;;;6180698;23;20333;-87
2022/10/31 01:24:20;;;;;;;36.42;15.48;;;;;;;;;;6207788;23;20007;-87
2022/10/31 01:26:47;;;;;;;43.20;17.73;;;;;;;;;;6180247;23;20082;-87
2022/10/31 01:29:13;;;;;;;41.45;15.27;;;;;;;;;;6183548;23;20005;-87
2022/10/31 01:31:39;;;;;;;44.30;15.52;;;;;;;;;;6183178;23;20008;-87
2022/10/31 01:34:06;;;;;;;36.00;14.60;;;;;;;;;;6210829;23;20378;-88
2022/10/31 01:36:36;;;;;;;43.75;15.93;;;;;;;;;;6212497;23;20742;-87
2022/10/31 01:39:04;;;;;;;36.53;14.18;;;;;;;;;;6210512;23;20372;-87
2022/10/31 01:41:38;;;;;;;37.42;14.05;;;;;;;;;;6209810;23;20120;-87
2022/10/31 01:44:24;;;;;;;36.72;15.15;;;;;;;;;;6184954;22;20024;-87
2022/10/31 01:47:03;;;;;;;43.95;14.73;;;;;;;;;;6209541;23;20645;-87
2022/10/31 01:49:29;;;;;;;39.80;14.60;;;;;;;;;;6211569;23;20543;-87
2022/10/31 01:51:57;;;;;;;35.80;13.23;;;;;;;;;;6207849;23;20004;-87
2022/10/31 01:54:25;;;;;;;33.30;14.82;;;;;;;;;;6209704;23;20011;-87
2022/10/31 01:56:54;;;;;;;36.35;13.95;;;;;;;;;;6208650;23;20541;-87
2022/10/31 01:59:21;;;;;;;39.15;14.15;;;;;;;;;;6207381;23;20059;-87
2022/10/31 02:01:50;;;;;;;37.20;14.15;;;;;;;;;;6210355;23;20044;-87
2022/10/31 02:04:17;;;;;;;40.03;14.90;;;;;;;;;;6208793;23;20008;-87
2022/10/31 02:06:48;;;;;;;39.10;12.70;;;;;;;;;;6208958;23;20074;-87
2022/10/31 02:09:14;;;;;;;39.03;14.07;;;;;;;;;;6206790;23;20009;-86
2022/10/31 02:11:41;;;;;;;47.72;12.13;;;;;;;;;;6206993;23;20442;-87
2022/10/31 02:14:07;;;;;;;32.65;14.63;;;;;;;;;;6208823;23;20786;-87
2022/10/31 02:16:33;;;;;;;34.03;13.52;;;;;;;;;;6181038;23;20039;-87
2022/10/31 02:18:59;;;;;;;32.63;13.55;;;;;;;;;;6185056;23;20464;-87
2022/10/31 02:21:34;;;;;;;29.98;12.98;;;;;;;;;;6183551;23;20055;-87
2022/10/31 02:24:12;;;;;;;32.80;14.27;;;;;;;;;;6207969;23;20001;-87
2022/10/31 02:26:58;;;;;;;40.72;12.85;;;;;;;;;;6207636;23;20008;-87
2022/10/31 02:29:43;;;;;;;36.92;14.07;;;;;;;;;;6206651;23;20503;-87
2022/10/31 02:32:21;;;;;;;32.92;13.02;;;;;;;;;;6208885;23;20015;-87
2022/10/31 02:34:47;;;;;;;31.70;12.75;;;;;;;;;;6207579;23;20107;-87
2022/10/31 02:37:14;;;;;;;32.42;13.43;;;;;;;;;;6209352;23;20028;-88
2022/10/31 02:39:43;;;;;;;37.25;14.02;;;;;;;;;;6207651;23;20340;-87
2022/10/31 02:42:13;;;;;;;38.90;14.23;;;;;;;;;;6205388;23;20499;-88
2022/10/31 02:44:44;;;;;;;26.13;13.18;;;;;;;;;;6210292;22;20073;-87
2022/10/31 02:47:15;;;;;;;30.15;13.45;;;;;;;;;;6208868;23;20318;-87
2022/10/31 02:49:48;;;;;;;37.92;14.18;;;;;;;;;;6208357;23;20365;-88
2022/10/31 02:52:18;;;;;;;35.33;15.40;;;;;;;;;;6207796;23;20004;-88
2022/10/31 02:54:46;;;;;;;35.40;15.77;;;;;;;;;;6209361;23;20445;-87
2022/10/31 02:57:13;;;;;;;35.50;14.52;;;;;;;;;;6208643;23;20008;-87
2022/10/31 02:59:42;;;;;;;30.75;13.95;;;;;;;;;;6208567;23;20009;-87
2022/10/31 03:02:20;;;;;;;34.42;14.23;;;;;;;;;;6202213;23;20004;-87
2022/10/31 03:05:05;;;;;;;47.28;16.42;;;;;;;;;;6209605;23;20437;-87
2022/10/31 03:07:37;;;;;;;37.65;15.82;;;;;;;;;;6208687;23;20134;-87
2022/10/31 03:10:20;;;;;;;36.90;14.93;;;;;;;;;;6207289;23;20009;-88
2022/10/31 03:12:46;;;;;;;39.25;16.00;;;;;;;;;;6208782;23;20001;-87
2022/10/31 03:15:33;;;;;;;45.80;16.08;;;;;;;;;;6205358;23;20019;-87
2022/10/31 03:18:08;;;;;;;30.52;13.88;;;;;;;;;;6206232;23;20033;-87
2022/10/31 03:20:37;;;;;;;40.63;15.50;;;;;;;;;;6207044;23;20008;-87
2022/10/31 03:23:04;;;;;;;35.72;13.43;;;;;;;;;;6207994;23;20001;-87
2022/10/31 03:25:32;;;;;;;39.20;15.15;;;;;;;;;;6209362;23;20518;-86
2022/10/31 03:27:59;;;;;;;33.05;13.93;;;;;;;;;;6208550;23;20007;-86
2022/10/31 03:30:25;;;;;;;46.72;15.50;;;;;;;;;;6207867;23;20009;-87
2022/10/31 03:32:53;;;;;;;36.15;14.90;;;;;;;;;;6208345;23;20791;-87
2022/10/31 03:35:21;;;;;;;32.95;14.27;;;;;;;;;;6206743;23;20344;-87
2022/10/31 03:37:48;;;;;;;35.88;15.23;;;;;;;;;;6206315;23;20008;-87
2022/10/31 03:40:15;;;;;;;33.05;14.60;;;;;;;;;;6210636;23;20004;-87
2022/10/31 03:42:43;;;;;;;35.63;14.75;;;;;;;;;;6209192;22;20001;-88
2022/10/31 03:45:15;;;;;;;42.08;14.90;;;;;;;;;;6243738;22;20435;-88
2022/10/31 03:47:43;;;;;;;32.28;14.05;;;;;;;;;;6242925;22;20342;-87
2022/10/31 03:50:11;;;;;;;32.65;14.23;;;;;;;;;;6268810;22;20014;-87
2022/10/31 03:52:57;;;;;;;36.92;15.32;;;;;;;;;;6244219;22;20606;-87
2022/10/31 03:55:23;;;;;;;;;;;;;;;;;;6271245;22;20004;-87
2022/10/31 03:57:53;;;;;;;31.70;14.43;;;;;;;;;;6243956;22;19906;-87
2022/10/31 04:00:20;;;;;;;37.38;14.00;;;;;;;;;;6242983;22;20094;-87
2022/10/31 04:03:12;;;;;;;30.13;14.05;;;;;;;;;;6269964;22;20003;-87
2022/10/31 04:05:39;;;;;;;37.00;14.02;;;;;;;;;;6234859;22;20471;-87
2022/10/31 04:08:07;;;;;;;37.00;14.82;;;;;;;;;;6243394;22;20011;-87
2022/10/31 04:10:34;;;;;;;28.70;13.98;;;;;;;;;;6243033;22;20420;-87
2022/10/31 04:13:06;;;;;;;39.97;15.38;;;;;;;;;;6268761;22;20498;-87
2022/10/31 04:15:33;;;;;;;36.88;14.02;;;;;;;;;;6240161;22;20102;-87
2022/10/31 04:18:01;;;;;;;36.00;13.75;;;;;;;;;;6269283;22;20457;-87
2022/10/31 04:20:45;;;;;;;30.75;13.18;;;;;;;;;;6242365;22;20006;-88
2022/10/31 04:23:17;;;;;;;30.83;13.77;;;;;;;;;;6241867;22;20007;-87
2022/10/31 04:25:43;;;;;;;33.08;12.73;;;;;;;;;;6271171;22;20065;-87
2022/10/31 04:28:11;;;;;;;33.25;13.25;;;;;;;;;;6243952;22;20007;-86
2022/10/31 04:30:37;;;;;;;35.72;13.20;;;;;;;;;;6242997;22;20423;-86
2022/10/31 04:33:03;;;;;;;28.38;13.30;;;;;;;;;;6215269;22;20012;-87
2022/10/31 04:35:29;;;;;;;36.67;13.50;;;;;;;;;;6243661;22;20012;-86
2022/10/31 04:37:55;;;;;;;32.90;13.30;;;;;;;;;;6217154;22;20016;-87
2022/10/31 04:40:21;;;;;;;37.40;13.73;;;;;;;;;;6217344;22;20004;-86
2022/10/31 04:42:47;;;;;;;34.45;13.27;;;;;;;;;;6216789;22;20011;-88
2022/10/31 04:45:13;;;;;;;30.85;13.45;;;;;;;;;;6238271;23;20164;-88
2022/10/31 04:47:39;;;;;;;34.60;14.25;;;;;;;;;;6211745;23;20004;-87
2022/10/31 04:50:05;;;;;;;33.53;13.60;;;;;;;;;;6212308;23;20057;-87
2022/10/31 04:52:31;;;;;;;36.08;13.98;;;;;;;;;;6211626;23;20016;-87
2022/10/31 04:54:57;;;;;;;38.20;13.80;;;;;;;;;;6236569;23;20019;-87
2022/10/31 04:57:23;;;;;;;47.15;15.30;;;;;;;;;;6211464;23;20633;-87
2022/10/31 04:59:49;;;;;;;34.83;13.68;;;;;;;;;;6211530;23;20012;-87
2022/10/31 05:02:15;;;;;;;34.65;14.98;;;;;;;;;;6214620;23;20008;-87
2022/10/31 05:04:41;;;;;;;27.33;12.60;;;;;;;;;;6238809;23;20001;-86
2022/10/31 05:07:07;;;;;;;30.55;13.25;;;;;;;;;;6241020;23;20061;-87
2022/10/31 05:09:33;;;;;;;26.00;13.13;;;;;;;;;;6237635;23;20004;-87
2022/10/31 05:11:59;;;;;;;28.73;12.45;;;;;;;;;;6240062;23;20050;-87
2022/10/31 05:14:25;;;;;;;31.08;13.32;;;;;;;;;;6214147;23;20015;-88
2022/10/31 05:16:51;;;;;;;37.22;14.20;;;;;;;;;;6237351;23;20066;-87
2022/10/31 05:19:17;;;;;;;33.90;13.25;;;;;;;;;;6239674;23;20045;-87
2022/10/31 05:21:43;;;;;;;40.55;14.63;;;;;;;;;;6213387;23;20012;-86
2022/10/31 05:24:09;;;;;;;32.75;13.25;;;;;;;;;;6215140;23;20086;-87
2022/10/31 05:26:35;;;;;;;28.80;14.43;;;;;;;;;;6213836;23;20012;-87
2022/10/31 05:29:01;;;;;;;30.83;13.48;;;;;;;;;;6241092;23;20015;-87
2022/10/31 05:31:27;;;;;;;35.60;14.35;;;;;;;;;;6239873;23;20016;-86
2022/10/31 05:33:53;;;;;;;32.20;15.07;;;;;;;;;;6239015;23;20008;-87
2022/10/31 05:36:19;;;;;;;38.72;14.98;;;;;;;;;;6240325;23;20043;-87
2022/10/31 05:38:47;;;;;;;36.17;15.30;;;;;;;;;;6215391;23;20012;-87
2022/10/31 05:41:13;;;;;;;30.17;13.60;;;;;;;;;;6213563;23;20008;-87
2022/10/31 05:43:52;;;;;;;32.05;14.05;;;;;;;;;;6236337;22;20031;-87
2022/10/31 05:46:18;;;;;;;39.83;14.45;;;;;;;;;;6244587;22;20024;-87
2022/10/31 05:48:44;;;;;;;30.92;13.85;;;;;;;;;;6220913;22;20335;-87
2022/10/31 05:51:12;;;;;;;33.33;14.82;;;;;;;;;;6220294;22;20503;-86
2022/10/31 05:53:38;;;;;;;33.70;15.45;;;;;;;;;;6219646;22;20347;-87
2022/10/31 05:56:05;;;;;;;37.97;15.38;;;;;;;;;;6244038;22;20031;-87
2022/10/31 05:58:31;;;;;;;32.10;14.68;;;;;;;;;;6244238;22;20008;-87
2022/10/31 06:00:57;;;;;;;32.10;14.38;;;;;;;;;;6218708;22;20024;-88
2022/10/31 06:03:23;;;;;;;28.60;15.23;;;;;;;;;;6219034;22;20012;-88
2022/10/31 06:05:49;;;;;;;33.22;15.45;;;;;;;;;;6219040;22;20015;-87
2022/10/31 06:08:15;;;;;;;33.85;16.27;;;;;;;;;;6217697;22;20356;-88
2022/10/31 06:10:41;;;;;;;37.13;14.77;;;;;;;;;;6220782;22;20008;-88
2022/10/31 06:13:07;;;;;;;33.70;14.25;;;;;;;;;;6219487;22;20039;-87
2022/10/31 06:15:33;;;;;;;37.83;14.98;;;;;;;;;;6219277;22;20344;-86
2022/10/31 06:18:13;;;;;;;33.95;14.07;;;;;;;;;;6222107;22;20011;-86
2022/10/31 06:20:39;;;;;;;32.47;13.90;;;;;;;;;;6271325;22;20481;-86
2022/10/31 06:23:06;;;;;;;37.17;13.88;;;;;;;;;;6214055;22;20007;-86
2022/10/31 06:25:32;;;;;;;34.05;13.55;;;;;;;;;;6238826;22;20010;-87
2022/10/31 06:27:59;;;;;;;30.42;13.27;;;;;;;;;;6242541;22;20441;-86
2022/10/31 06:30:25;;;;;;;27.55;12.70;;;;;;;;;;6217681;22;20039;-87
2022/10/31 06:32:51;;;;;;;28.48;13.40;;;;;;;;;;6242968;22;20014;-87
2022/10/31 06:35:17;;;;;;;29.83;12.82;;;;;;;;;;6217723;22;20027;-87
2022/10/31 06:37:43;;;;;;;30.90;14.60;;;;;;;;;;6242079;22;20007;-87
2022/10/31 06:40:10;;;;;;;30.90;13.90;;;;;;;;;;6242764;22;20010;-87
2022/10/31 06:42:36;;;;;;;37.40;15.20;;;;;;;;;;6217066;22;20032;-87
2022/10/31 06:45:02;;;;;;;40.80;16.23;;;;;;;;;;6218552;22;20024;-87
2022/10/31 06:47:28;;;;;;;40.22;14.88;;;;;;;;;;6182058;23;20066;-87
2022/10/31 06:49:54;;;;;;;40.97;14.70;;;;;;;;;;6207761;23;20092;-87
2022/10/31 06:52:20;;;;;;;28.42;12.95;;;;;;;;;;6186570;23;20230;-87
2022/10/31 06:54:46;;;;;;;36.90;13.85;;;;;;;;;;6186915;23;20314;-87
2022/10/31 06:57:12;;;;;;;35.85;14.40;;;;;;;;;;6211507;23;20429;-87
2022/10/31 06:59:38;;;;;;;30.13;13.68;;;;;;;;;;6185372;23;20095;-87
2022/10/31 07:02:04;;;;;;;29.08;13.00;;;;;;;;;;6210045;23;20012;-87
2022/10/31 07:04:30;;;;;;;21.80;10.95;;;;;;;;;;6209137;23;20016;-86
2022/10/31 07:06:56;;;;;;;25.17;13.00;;;;;;;;;;6183936;23;20004;-87
2022/10/31 07:09:22;;;;;;;28.83;13.10;;;;;;;;;;6211169;23;20051;-86
2022/10/31 07:11:48;;;;;;;30.33;14.45;;;;;;;;;;6207005;23;20471;-86
2022/10/31 07:14:14;;;;;;;29.90;14.68;;;;;;;;;;6210953;23;20441;-87
2022/10/31 07:16:40;;;;;;;27.58;13.77;;;;;;;;;;6208186;23;20008;-87
2022/10/31 07:19:06;;;;;;;34.05;13.00;;;;;;;;;;6212264;23;20039;-87
2022/10/31 07:21:39;;;;;;;31.45;12.80;;;;;;;;;;6184351;23;20012;-88
2022/10/31 07:24:05;;;;;;;32.13;13.75;;;;;;;;;;6211454;23;20009;-88
2022/10/31 07:26:31;;;;;;;27.80;11.95;;;;;;;;;;6183848;23;20008;-86
2022/10/31 07:28:59;;;;;;;27.35;12.57;;;;;;;;;;6186369;23;20032;-87
2022/10/31 07:31:25;;;;;;;26.10;12.65;;;;;;;;;;6184276;23;20504;-87
2022/10/31 07:33:51;;;;;;;30.20;13.77;;;;;;;;;;6209063;23;20064;-87
2022/10/31 07:36:17;;;;;;;26.50;13.32;;;;;;;;;;6186758;23;20044;-87
2022/10/31 07:38:43;;;;;;;30.20;13.95;;;;;;;;;;6210615;23;20023;-87
2022/10/31 07:41:09;;;;;;;26.70;13.60;;;;;;;;;;6207921;23;20011;-86
2022/10/31 07:43:35;;;;;;;28.13;15.52;;;;;;;;;;6184003;23;20016;-87
2022/10/31 07:46:01;;;;;;;28.95;13.95;;;;;;;;;;6210510;22;20017;-87
2022/10/31 07:48:27;;;;;;;27.52;13.65;;;;;;;;;;6183218;23;20070;-87
2022/10/31 07:50:53;;;;;;;26.27;12.20;;;;;;;;;;6209359;23;20442;-88
2022/10/31 07:53:19;;;;;;;28.17;13.52;;;;;;;;;;6183753;23;20139;-88
2022/10/31 07:55:45;;;;;;;24.23;12.43;;;;;;;;;;6207925;23;20016;-87
2022/10/31 07:58:13;;;;;;;22.90;11.63;;;;;;;;;;6203147;23;20498;-86
2022/10/31 08:00:40;;;;;;;19.77;10.77;;;;;;;;;;6205604;23;20015;-87
2022/10/31 08:03:10;;;;;;;20.95;11.13;;;;;;;;;;6205078;23;20436;-88
2022/10/31 08:05:37;;;;;;;19.50;10.77;;;;;;;;;;6204411;23;20028;-88
2022/10/31 08:08:03;;;;;;;14.27;9.52;;;;;;;;;;6205732;23;20454;-87
2022/10/31 08:10:29;;;;;;;19.95;11.07;;;;;;;;;;6208897;23;20015;-88
2022/10/31 08:13:06;;;;;;;25.88;11.27;;;;;;;;;;6206673;23;20512;-87
2022/10/31 08:15:33;;;;;;;20.27;11.05;;;;;;;;;;6206487;23;20012;-88
2022/10/31 08:18:00;;;;;;;15.73;8.80;;;;;;;;;;6207457;23;20004;-87
2022/10/31 08:20:26;;;;;;;17.23;10.77;;;;;;;;;;6228853;23;20255;-88
2022/10/31 08:22:59;;;;;;;17.73;9.85;;;;;;;;;;6204368;23;20432;-88
2022/10/31 08:25:26;;;;;;;20.55;10.77;;;;;;;;;;6230968;23;20088;-88
2022/10/31 08:27:52;;;;;;;19.95;10.45;;;;;;;;;;6205300;23;20008;-87
2022/10/31 08:30:19;;;;;;;16.30;9.43;;;;;;;;;;6204876;23;20527;-88
2022/10/31 08:32:45;;;;;;;20.00;10.55;;;;;;;;;;6206199;23;20038;-88
2022/10/31 08:35:11;;;;;;;21.35;10.23;;;;;;;;;;6206231;23;20457;-88
2022/10/31 08:37:37;;;;;;;15.75;9.85;;;;;;;;;;6181632;23;20021;-88
2022/10/31 08:40:04;;;;;;;20.92;10.73;;;;;;;;;;6207475;23;20428;-87
2022/10/31 08:42:30;;;;;;;18.55;10.00;;;;;;;;;;6210027;23;20028;-88
2022/10/31 08:44:56;;;;;;;19.45;9.68;;;;;;;;;;6186861;22;20164;-88
2022/10/31 08:47:23;;;;;;;19.17;11.00;;;;;;;;;;6229518;23;20414;-87
2022/10/31 08:49:53;;;;;;;21.98;10.15;;;;;;;;;;6189545;23;20004;-88
2022/10/31 08:52:19;;;;;;;18.80;9.80;;;;;;;;;;6217227;23;20013;-88
2022/10/31 08:54:52;;;;;;;17.92;10.63;;;;;;;;;;6215280;23;20008;-88
2022/10/31 08:57:18;;;;;;;24.70;10.65;;;;;;;;;;6194529;23;20498;-87
2022/10/31 08:59:47;;;;;;;17.45;9.25;;;;;;;;;;6192528;23;20057;-87
2022/10/31 09:02:15;;;;;;;16.35;10.55;;;;;;;;;;6216225;23;20020;-88
2022/10/31 09:04:41;;;;;;;18.90;9.70;;;;;;;;;;6215418;23;20405;-88
2022/10/31 09:07:10;;;;;;;13.98;9.40;;;;;;;;;;6217265;23;20451;-88
2022/10/31 09:09:38;;;;;;;16.40;9.85;;;;;;;;;;6211124;23;20012;-87
2022/10/31 09:12:14;;;;;;;14.38;9.43;;;;;;;;;;6215576;23;20012;-88
2022/10/31 09:14:40;;;;;;;13.80;9.00;;;;;;;;;;6240989;23;20441;-87
2022/10/31 09:17:07;;;;;;;16.90;9.85;;;;;;;;;;6209061;23;20031;-87
2022/10/31 09:19:33;;;;;;;21.20;9.68;;;;;;;;;;6211810;23;20038;-87
2022/10/31 09:22:02;;;;;;;18.08;10.05;;;;;;;;;;6213066;23;20385;-87
2022/10/31 09:24:28;;;;;;;16.88;10.40;;;;;;;;;;6188641;23;20472;-87
2022/10/31 09:26:55;;;;;;;15.15;9.90;;;;;;;;;;6207070;23;20064;-88
2022/10/31 09:29:26;;;;;;;18.65;10.75;;;;;;;;;;6212832;23;20064;-88
2022/10/31 09:31:52;;;;;;;17.05;10.50;;;;;;;;;;6184231;23;20016;-88
2022/10/31 09:34:18;;;;;;;14.75;9.80;;;;;;;;;;6209367;23;20013;-88
2022/10/31 09:36:46;;;;;;;16.13;10.02;;;;;;;;;;6238287;23;20634;-88
2022/10/31 09:39:12;;;;;;;15.00;9.85;;;;;;;;;;6207508;23;20433;-88
2022/10/31 09:41:48;;;;;;;18.15;10.63;;;;;;;;;;6208881;23;20027;-88
2022/10/31 09:44:21;;;;;;;20.67;10.25;;;;;;;;;;6220833;22;20094;-88
2022/10/31 09:47:01;;;;;;;18.33;9.95;;;;;;;;;;6248436;22;20011;-88
2022/10/31 09:49:33;;;;;;;14.50;8.57;;;;;;;;;;6245223;22;20086;-88
2022/10/31 09:52:09;;;;;;;15.13;9.98;;;;;;;;;;6242593;22;20644;-88
2022/10/31 09:54:44;;;;;;;14.32;8.90;;;;;;;;;;6246262;22;20015;-88
2022/10/31 09:57:15;;;;;;;11.95;9.10;;;;;;;;;;6247095;22;20107;-88
2022/10/31 09:59:42;;;;;;;12.25;9.18;;;;;;;;;;6271168;22;19999;-88
2022/10/31 10:02:26;;;;;;;12.60;9.20;;;;;;;;;;6273656;22;20027;-88
2022/10/31 10:05:01;;;;;;;12.73;8.82;;;;;;;;;;6242149;22;20035;-88
2022/10/31 10:07:46;;;;;;;16.42;9.68;;;;;;;;;;6270385;22;20450;-88
2022/10/31 10:10:23;;;;;;;16.60;10.07;;;;;;;;;;6272519;22;20035;-88
2022/10/31 10:12:49;;;;;;;14.90;9.15;;;;;;;;;;6243513;22;20309;-90
2022/10/31 10:15:16;;;;;;;13.30;9.35;;;;;;;;;;6243186;22;20097;-89
2022/10/31 10:18:02;;;;;;;15.25;9.25;;;;;;;;;;6244500;22;20008;-88
2022/10/31 10:20:28;;;;;;;;;;;;;;;;;;6249358;22;20007;-88
2022/10/31 10:23:04;;;;;;;15.35;8.98;;;;;;;;;;6250831;22;19968;-89
2022/10/31 10:25:40;;;;;;;15.85;8.82;;;;;;;;;;6248684;22;20435;-89
2022/10/31 10:28:37;;;;;;;10.88;8.02;;;;;;;;;;6275423;22;20006;-89
2022/10/31 10:31:10;;;;;;;14.93;8.02;;;;;;;;;;6237791;22;20411;-89
2022/10/31 10:33:57;;;;;;;12.15;8.23;;;;;;;;;;6276547;22;20418;-89
2022/10/31 10:36:38;;;;;;;13.88;8.45;;;;;;;;;;6248870;22;20008;-89
2022/10/31 10:39:31;;;;;;;16.33;8.50;;;;;;;;;;6277244;22;20065;-90
2022/10/31 10:47:38;;;;;;;20.02;7.55;;;;;;;;;;6278651;22;20061;-88
2022/10/31 10:50:10;;;;;;;13.90;7.95;;;;;;;;;;6278188;22;19996;-89
2022/10/31 10:52:36;;;;;;;14.63;8.15;;;;;;;;;;6278702;22;20000;-89
2022/10/31 10:55:16;;;;;;;14.30;8.30;;;;;;;;;;6278112;22;20000;-89
2022/10/31 10:57:44;;;;;;;19.67;7.45;;;;;;;;;;6250453;22;20433;-89
2022/10/31 11:00:51;;;;;;;21.10;9.80;;;;;;;;;;6250118;22;20007;-89
2022/10/31 11:03:17;;;;;;;;;;;;;;;;;;6098324;23;20517;-89
2022/10/31 11:06:01;;;;;;;14.63;8.50;;;;;;;;;;6251385;22;19899;-88
2022/10/31 11:08:40;;;;;;;21.35;9.18;;;;;;;;;;6277729;22;20011;-89
2022/10/31 11:11:19;;;;;;;16.40;8.82;;;;;;;;;;6251385;22;20004;-89
2022/10/31 11:13:47;;;;;;;21.13;8.05;;;;;;;;;;6250473;22;20008;-89
2022/10/31 11:16:32;;;;;;;15.00;7.03;;;;;;;;;;6250565;22;20094;-89
2022/10/31 11:19:17;;;;;;;15.90;6.60;;;;;;;;;;6251687;22;20011;-89
2022/10/31 11:21:45;;;;;;;12.68;7.28;;;;;;;;;;6249179;22;20004;-89
2022/10/31 11:24:11;;;;;;;11.60;7.32;;;;;;;;;;6250099;22;20015;-89
2022/10/31 11:26:39;;;;;;;15.50;6.93;;;;;;;;;;6249138;22;20007;-90
2022/10/31 11:29:05;;;;;;;16.23;8.38;;;;;;;;;;6247093;22;20018;-90
2022/10/31 11:31:33;;;;;;;17.80;8.20;;;;;;;;;;6244916;22;20012;-89
2022/10/31 11:34:05;;;;;;;17.25;8.18;;;;;;;;;;6244319;22;20061;-89
2022/10/31 11:36:34;;;;;;;13.85;7.75;;;;;;;;;;6277538;22;20332;-89
2022/10/31 11:39:02;;;;;;;10.98;6.82;;;;;;;;;;6252936;22;20011;-89
2022/10/31 11:41:33;;;;;;;15.95;7.18;;;;;;;;;;6248477;22;20015;-89
2022/10/31 11:44:01;;;;;;;12.07;6.72;;;;;;;;;;6254781;22;20004;-89
2022/10/31 11:46:35;;;;;;;10.90;5.90;;;;;;;;;;6281044;22;20529;-89
2022/10/31 11:49:02;;;;;;;13.00;7.10;;;;;;;;;;6256072;22;20008;-89
2022/10/31 11:51:35;;;;;;;14.15;5.65;;;;;;;;;;6228154;22;20111;-89
2022/10/31 11:54:03;;;;;;;12.98;6.40;;;;;;;;;;6253849;22;20325;-89
2022/10/31 11:56:40;;;;;;;20.83;6.50;;;;;;;;;;6277956;22;20000;-89
2022/10/31 11:59:18;;;;;;;15.07;6.55;;;;;;;;;;6228909;22;20015;-88
2022/10/31 12:01:53;;;;;;;12.93;6.55;;;;;;;;;;6251810;22;20015;-89
2022/10/31 12:04:24;;;;;;;17.30;7.30;;;;;;;;;;6251665;22;20004;-89
2022/10/31 12:06:53;;;;;;;12.98;7.47;;;;;;;;;;6248798;22;20008;-89
2022/10/31 12:09:22;;;;;;;18.90;6.25;;;;;;;;;;6251020;22;20329;-89
2022/10/31 12:11:48;;;;;;;15.52;6.90;;;;;;;;;;6245637;22;20012;-89
2022/10/31 12:14:14;;;;;;;11.48;5.82;;;;;;;;;;6244302;22;20330;-89
2022/10/31 12:16:47;;;;;;;18.83;5.85;;;;;;;;;;6241185;22;20509;-89
2022/10/31 12:19:32;;;;;;;15.07;6.03;;;;;;;;;;6244515;22;20073;-88
2022/10/31 12:22:03;;;;;;;13.60;5.50;;;;;;;;;;6243596;22;20016;-89
2022/10/31 12:24:40;;;;;;;11.65;6.05;;;;;;;;;;6245165;22;20091;-88
2022/10/31 12:27:06;;;;;;;9.57;6.78;;;;;;;;;;6243797;22;20000;-89
2022/10/31 12:29:32;;;;;;;16.08;6.00;;;;;;;;;;6266885;22;20482;-89
2022/10/31 12:32:14;;;;;;;17.02;6.18;;;;;;;;;;6241097;22;20016;-89
2022/10/31 12:34:54;;;;;;;13.18;6.70;;;;;;;;;;6268234;22;20502;-89
2022/10/31 12:37:28;;;;;;;12.35;6.20;;;;;;;;;;6240026;22;20012;-89
2022/10/31 12:40:13;;;;;;;10.87;5.53;;;;;;;;;;6241401;22;20039;-89
2022/10/31 12:42:49;;;;;;;11.52;5.55;;;;;;;;;;6243176;22;20499;-89
2022/10/31 12:45:34;;;;;;;11.05;5.45;;;;;;;;;;6244962;22;20003;-89
2022/10/31 12:48:09;;;;;;;11.45;5.35;;;;;;;;;;6273738;22;20479;-89
2022/10/31 12:50:43;;;;;;;12.65;6.05;;;;;;;;;;6272808;22;20090;-89
2022/10/31 12:53:28;;;;;;;16.42;6.10;;;;;;;;;;6249804;22;20008;-89
2022/10/31 12:56:10;;;;;;;14.30;5.97;;;;;;;;;;6246547;22;20004;-88
2022/10/31 12:58:36;;;;;;;9.38;5.03;;;;;;;;;;6243194;22;20046;-89
2022/10/31 13:01:11;;;;;;;17.23;6.00;;;;;;;;;;6244842;22;20004;-89
2022/10/31 13:03:49;;;;;;;16.65;6.07;;;;;;;;;;6242224;22;20008;-89
2022/10/31 13:06:19;;;;;;;14.63;5.82;;;;;;;;;;6242516;22;20004;-88
2022/10/31 13:08:51;;;;;;;12.73;5.40;;;;;;;;;;6243637;22;20402;-89
2022/10/31 13:11:20;;;;;;;19.33;6.18;;;;;;;;;;6244118;22;20069;-89
2022/10/31 13:13:56;;;;;;;18.90;6.03;;;;;;;;;;6245313;22;20095;-88
2022/10/31 13:16:23;;;;;;;11.60;5.55;;;;;;;;;;6268817;22;20557;-88
2022/10/31 13:18:52;;;;;;;18.10;5.80;;;;;;;;;;6243219;22;20432;-89
2022/10/31 13:21:23;;;;;;;11.38;4.53;;;;;;;;;;6271117;22;20019;-88
2022/10/31 13:23:52;;;;;;;8.20;3.13;;;;;;;;;;6245383;22;20003;-88
2022/10/31 13:26:32;;;;;;;6.65;2.95;;;;;;;;;;6219858;22;20505;-89
2022/10/31 13:29:07;;;;;;;8.13;2.83;;;;;;;;;;6272740;22;20042;-88
2022/10/31 13:31:33;;;;;;;11.27;3.15;;;;;;;;;;6245093;22;20250;-88
2022/10/31 13:34:04;;;;;;;10.45;3.78;;;;;;;;;;6220981;22;20016;-89
2022/10/31 13:36:32;;;;;;;12.73;3.38;;;;;;;;;;6245493;22;20065;-88
2022/10/31 13:39:03;;;;;;;10.50;3.53;;;;;;;;;;6273452;22;20008;-89
2022/10/31 13:41:50;;;;;;;10.55;3.80;;;;;;;;;;6243394;22;20468;-88
2022/10/31 13:44:19;;;;;;;11.30;3.83;;;;;;;;;;6245451;22;20008;-88
2022/10/31 13:46:45;;;;;;;11.07;4.10;;;;;;;;;;6222251;22;20021;-88
2022/10/31 13:49:27;;;;;;;16.02;3.85;;;;;;;;;;6212454;23;20080;-89
2022/10/31 13:51:53;;;;;;;17.83;4.57;;;;;;;;;;6210884;23;20078;-88
2022/10/31 13:54:33;;;;;;;13.45;5.30;;;;;;;;;;6210373;23;20013;-89
2022/10/31 13:56:59;;;;;;;18.98;5.18;;;;;;;;;;6211783;23;20009;-88
2022/10/31 13:59:30;;;;;;;10.45;5.38;;;;;;;;;;6213429;23;20005;-89
2022/10/31 14:02:01;;;;;;;15.75;5.35;;;;;;;;;;6221748;23;20009;-88
2022/10/31 14:04:30;;;;;;;15.30;5.97;;;;;;;;;;6247155;23;20000;-88
2022/10/31 14:06:59;;;;;;;17.55;6.63;;;;;;;;;;6242057;23;20016;-88
2022/10/31 14:09:25;;;;;;;25.80;6.45;;;;;;;;;;6237331;23;20373;-89
2022/10/31 14:11:51;;;;;;;16.95;5.28;;;;;;;;;;6232969;23;20019;-88
2022/10/31 14:14:18;;;;;;;14.88;5.22;;;;;;;;;;6235660;23;20012;-88
2022/10/31 14:16:45;;;;;;;16.27;5.57;;;;;;;;;;6206221;23;20016;-88
2022/10/31 14:19:18;;;;;;;14.73;5.35;;;;;;;;;;6227022;23;20011;-88
2022/10/31 14:21:45;;;;;;;12.55;4.70;;;;;;;;;;6232640;23;20012;-89
2022/10/31 14:24:17;;;;;;;15.23;5.80;;;;;;;;;;6233617;23;20009;-89
2022/10/31 14:26:56;;;;;;;14.55;5.57;;;;;;;;;;6209580;23;20007;-87
2022/10/31 14:29:24;;;;;;;13.98;5.55;;;;;;;;;;6209944;23;20005;-89
2022/10/31 14:31:59;;;;;;;17.35;5.43;;;;;;;;;;6233974;23;20009;-88
2022/10/31 14:34:48;;;;;;;15.43;5.30;;;;;;;;;;6210473;23;20009;-88
2022/10/31 14:37:38;;;;;;;17.52;5.32;;;;;;;;;;6195521;23;20068;-88
2022/10/31 14:40:04;;;;;;;14.05;4.68;;;;;;;;;;6231114;23;20012;-88
2022/10/31 14:42:50;;;;;;;12.75;4.40;;;;;;;;;;6231404;23;20008;-88
2022/10/31 14:45:22;;;;;;;12.57;4.38;;;;;;;;;;6236435;22;20032;-88